createdAt,value
2019-02-22T00:05:58.775Z,25.88
2019-02-22T00:11:11.993Z,27.35
2019-02-22T00:16:06.257Z,26.76
2019-02-22T00:21:15.531Z,28.11
2019-02-22T00:26:13.102Z,26.80
2019-02-22T00:31:36.707Z,26.27
2019-02-22T00:36:25.338Z,30.41
2019-02-22T00:41:40.934Z,26.30
2019-02-22T00:46:44.255Z,25.47
2019-02-22T00:56:49.477Z,28.41
2019-02-22T01:01:57.064Z,24.27
2019-02-22T01:06:56.153Z,24.51
2019-02-22T01:12:10.693Z,24.57
2019-02-22T01:17:10.726Z,25.52
2019-02-22T01:22:14.951Z,22.83
2019-02-22T01:27:15.691Z,22.63
2019-02-22T01:32:24.303Z,25.10
2019-02-22T01:37:23.133Z,24.29
2019-02-22T01:42:32.751Z,26.67
2019-02-22T01:47:42.560Z,23.53
2019-02-22T01:53:06.843Z,24.37
2019-02-22T01:57:53.892Z,23.18
2019-02-22T02:03:05.064Z,22.74
2019-02-22T02:08:03.379Z,22.82
2019-02-22T02:13:15.829Z,23.83
2019-02-22T02:18:15.933Z,23.69
2019-02-22T02:23:17.443Z,21.19
2019-02-22T02:28:15.703Z,20.76
2019-02-22T02:33:26.550Z,21.81
2019-02-22T02:38:27.244Z,20.94
2019-02-22T02:43:28.203Z,20.91
2019-02-22T02:48:26.600Z,21.92
2019-02-22T02:53:36.665Z,23.88
2019-02-22T02:58:36.890Z,22.24
2019-02-22T03:03:39.709Z,22.07
2019-02-22T03:08:39.304Z,23.04
2019-02-22T03:13:50.034Z,20.23
2019-02-22T03:18:55.446Z,23.54
2019-02-22T03:23:58.056Z,22.42
2019-02-22T03:29:03.565Z,22.66
2019-02-22T03:34:02.223Z,22.67
2019-02-22T03:39:10.691Z,24.12
2019-02-22T03:44:21.778Z,23.90
2019-02-22T03:49:22.449Z,22.64
2019-02-22T03:54:23.454Z,23.87
2019-02-22T03:59:22.350Z,25.15
2019-02-22T04:04:34.226Z,23.31
2019-02-22T04:09:32.766Z,25.16
2019-02-22T04:14:43.964Z,22.91
2019-02-22T04:19:49.105Z,23.01
2019-02-22T04:24:53.743Z,23.53
2019-02-22T04:29:57.468Z,23.47
2019-02-22T04:34:58.320Z,23.74
2019-02-22T04:39:59.263Z,23.66
2019-02-22T04:45:21.399Z,23.44
2019-02-22T04:50:07.550Z,24.89
2019-02-22T04:55:15.194Z,22.57
2019-02-22T05:00:30.857Z,20.19
2019-02-22T05:10:48.010Z,24.45
2019-02-22T05:15:47.261Z,24.50
2019-02-22T05:20:49.548Z,24.60
2019-02-22T05:25:56.793Z,21.92
2019-02-22T05:31:04.141Z,21.91
2019-02-22T05:36:03.783Z,20.48
2019-02-22T05:41:11.530Z,19.94
2019-02-22T05:46:12.866Z,22.51
2019-02-22T05:51:17.090Z,22.19
2019-02-22T05:56:29.022Z,19.99
2019-02-22T06:01:30.564Z,21.45
2019-02-22T06:06:11.803Z,23.08
2019-02-22T06:11:26.362Z,21.69
2019-02-22T06:16:29.305Z,22.70
2019-02-22T06:26:20.382Z,23.13
2019-02-22T06:31:51.965Z,23.24
2019-02-22T06:36:41.656Z,20.66
2019-02-22T06:41:51.960Z,20.74
2019-02-22T06:46:48.818Z,21.79
2019-02-22T06:51:56.649Z,23.38
2019-02-22T06:56:56.783Z,21.58
2019-02-22T07:02:03.355Z,20.31
2019-02-22T07:07:13.047Z,22.11
2019-02-22T07:12:16.897Z,20.58
2019-02-22T07:17:16.988Z,22.63
2019-02-22T07:22:19.193Z,23.05
2019-02-22T07:27:19.645Z,22.19
2019-02-22T07:32:23.264Z,20.80
2019-02-22T07:42:37.899Z,21.59
2019-02-22T07:47:36.753Z,22.40
2019-02-22T07:52:47.128Z,21.73
2019-02-22T07:57:46.505Z,22.73
2019-02-22T08:02:58.784Z,36.61
2019-02-22T08:07:58.338Z,29.97
2019-02-22T08:13:19.695Z,27.53
2019-02-22T08:18:17.655Z,23.58
2019-02-22T08:23:29.686Z,22.59
2019-02-22T08:28:23.573Z,20.82
2019-02-22T08:33:28.346Z,29.18
2019-02-22T08:38:33.539Z,32.33
2019-02-22T08:43:34.175Z,29.51
2019-02-22T08:48:36.283Z,31.62
2019-02-22T08:53:38.152Z,22.60
2019-02-22T08:58:37.229Z,25.54
2019-02-22T09:03:55.225Z,63.03
2019-02-22T09:08:57.856Z,21.20
2019-02-22T09:14:00.330Z,19.86
2019-02-22T09:19:04.597Z,19.21
2019-02-22T09:24:04.685Z,24.46
2019-02-22T09:29:03.773Z,28.01
2019-02-22T09:34:23.530Z,28.90
2019-02-22T09:39:25.123Z,29.78
2019-02-22T09:44:28.872Z,28.56
2019-02-22T09:49:34.554Z,29.35
2019-02-22T09:54:37.145Z,30.75
2019-02-22T09:59:41.732Z,29.46
2019-02-22T10:04:40.508Z,29.60
2019-02-22T10:10:00.297Z,31.17
2019-02-22T10:15:00.470Z,31.19
2019-02-22T10:20:03.975Z,29.86
2019-02-22T10:25:10.248Z,32.02
2019-02-22T10:30:13.778Z,32.43
2019-02-22T10:35:28.929Z,30.26
2019-02-22T10:40:28.907Z,31.31
2019-02-22T10:45:33.020Z,29.01
2019-02-22T10:50:32.199Z,28.76
2019-02-22T10:55:44.149Z,27.48
2019-02-22T11:00:47.089Z,28.15
2019-02-22T11:05:51.387Z,29.64
2019-02-22T11:10:59.957Z,29.50
2019-02-22T11:15:54.180Z,28.91
2019-02-22T11:21:02.555Z,29.34
2019-02-22T11:25:58.903Z,29.60
2019-02-22T11:31:14.860Z,29.88
2019-02-22T11:36:05.706Z,31.21
2019-02-22T11:41:18.217Z,30.23
2019-02-22T11:46:19.872Z,29.04
2019-02-22T11:51:17.939Z,28.58
2019-02-22T11:56:38.465Z,28.38
2019-02-22T12:01:27.385Z,28.97
2019-02-22T12:06:30.909Z,27.92
2019-02-22T12:11:38.155Z,28.11
2019-02-22T12:16:38.640Z,28.20
2019-02-22T12:21:43.652Z,25.69
2019-02-22T12:26:43.753Z,26.25
2019-02-22T12:31:51.840Z,25.69
2019-02-22T12:36:52.020Z,24.79
2019-02-22T12:41:55.562Z,24.65
2019-02-22T12:46:58.238Z,24.72
2019-02-22T12:51:59.357Z,25.29
2019-02-22T12:57:01.755Z,25.58
2019-02-22T13:02:04.339Z,23.80
2019-02-22T13:07:21.510Z,23.00
2019-02-22T13:12:14.642Z,24.86
2019-02-22T13:17:13.680Z,23.89
2019-02-22T13:22:34.580Z,23.48
2019-02-22T13:27:25.024Z,23.10
2019-02-22T13:32:27.189Z,22.21
2019-02-22T13:37:28.192Z,23.76
2019-02-22T13:42:26.993Z,21.91
2019-02-22T13:47:43.158Z,22.14
2019-02-22T13:52:47.375Z,22.76
2019-02-22T13:57:48.389Z,25.76
2019-02-22T14:02:48.819Z,23.98
2019-02-22T14:07:48.408Z,23.08
2019-02-22T14:13:03.308Z,25.52
2019-02-22T14:18:01.621Z,24.83
2019-02-22T14:23:10.711Z,23.23
2019-02-22T14:28:19.383Z,23.61
2019-02-22T14:33:31.221Z,22.97
2019-02-22T14:38:32.657Z,22.54
2019-02-22T14:43:44.738Z,23.14
2019-02-22T14:48:36.281Z,22.37
2019-02-22T14:53:46.659Z,23.87
2019-02-22T14:58:46.145Z,21.77
2019-02-22T15:03:45.692Z,23.96
2019-02-22T15:08:55.636Z,21.96
2019-02-22T15:14:18.678Z,23.28
2019-02-22T15:19:09.450Z,23.26
2019-02-22T15:24:18.677Z,23.73
2019-02-22T15:29:09.406Z,25.02
2019-02-22T15:34:20.833Z,22.13
2019-02-22T15:39:17.718Z,23.39
2019-02-22T15:44:30.396Z,21.83
2019-02-22T15:49:38.066Z,22.35
2019-02-22T15:54:42.562Z,23.72
2019-02-22T15:59:47.949Z,23.16
2019-02-22T16:04:54.933Z,25.45
2019-02-22T16:09:54.956Z,24.09
2019-02-22T16:14:58.969Z,22.38
2019-02-22T16:20:06.594Z,24.03
2019-02-22T16:25:19.698Z,25.31
2019-02-22T16:30:10.010Z,21.63
2019-02-22T16:35:15.795Z,25.22
2019-02-22T16:40:25.953Z,19.77
2019-02-22T16:45:43.420Z,18.22
2019-02-22T16:50:57.050Z,21.25
2019-02-22T16:55:46.601Z,20.61
2019-02-22T17:00:49.943Z,20.59
2019-02-22T17:05:47.221Z,23.18
2019-02-22T17:10:57.960Z,24.12
2019-02-22T17:15:56.565Z,22.47
2019-02-22T17:21:10.226Z,45.42
2019-02-22T17:26:09.781Z,27.98
2019-02-22T17:31:17.160Z,21.17
2019-02-22T17:36:26.484Z,14.21
2019-02-22T17:41:23.794Z,12.30
2019-02-22T17:46:25.023Z,11.35
2019-02-22T17:51:32.531Z,9.83
2019-02-22T17:56:34.487Z,10.21
2019-02-22T18:01:34.241Z,13.64
2019-02-22T18:06:36.559Z,12.90
2019-02-22T18:11:43.736Z,13.37
2019-02-22T18:16:44.148Z,14.56
2019-02-22T18:21:52.600Z,11.18
2019-02-22T18:26:53.582Z,12.38
2019-02-22T18:32:04.040Z,13.00
2019-02-22T18:37:14.269Z,20.72
2019-02-22T18:42:07.134Z,26.13
2019-02-22T18:47:18.981Z,16.94
2019-02-22T18:52:28.225Z,18.29
2019-02-22T18:57:17.682Z,14.72
2019-02-22T19:02:18.314Z,13.58
2019-02-22T19:07:29.047Z,15.83
2019-02-22T19:12:34.395Z,15.84
2019-02-22T19:17:32.949Z,16.74
2019-02-22T19:22:51.574Z,13.63
2019-02-22T19:27:53.453Z,7.94
2019-02-22T19:32:56.661Z,9.82
2019-02-22T19:37:56.529Z,9.91
2019-02-22T19:43:12.612Z,8.41
2019-02-22T19:48:22.839Z,12.63
2019-02-22T19:53:28.128Z,7.25
2019-02-22T19:58:28.852Z,6.87
2019-02-22T20:03:27.686Z,7.91
2019-02-22T20:08:39.468Z,10.20
2019-02-22T20:13:43.154Z,7.87
2019-02-22T20:18:47.491Z,7.67
2019-02-22T20:23:50.332Z,5.57
2019-02-22T20:28:50.897Z,7.22
2019-02-22T20:34:02.002Z,5.30
2019-02-22T20:38:52.884Z,6.45
2019-02-22T20:44:14.252Z,7.80
2019-02-22T20:49:15.423Z,14.65
2019-02-22T20:54:35.262Z,14.64
2019-02-22T20:59:26.490Z,6.79
2019-02-22T21:04:35.757Z,13.68
2019-02-22T21:09:36.892Z,35.81
2019-02-22T21:14:57.336Z,7.72
2019-02-22T21:19:49.999Z,12.05
2019-02-22T21:24:50.373Z,6.61
2019-02-22T21:29:55.101Z,5.52
2019-02-22T21:34:56.401Z,3.78
2019-02-22T21:39:55.288Z,11.05
2019-02-22T21:45:07.128Z,5.30
2019-02-22T21:50:16.574Z,4.83
2019-02-22T21:55:16.227Z,11.32
2019-02-22T22:00:30.012Z,6.90
2019-02-22T22:05:33.488Z,4.02
2019-02-22T22:10:36.521Z,3.50
2019-02-22T22:15:38.460Z,9.59
2019-02-22T22:20:37.316Z,6.62
2019-02-22T22:25:55.187Z,6.06
2019-02-22T22:30:57.752Z,3.27
2019-02-22T22:35:54.245Z,4.21
2019-02-22T22:46:09.921Z,3.96
2019-02-22T22:51:12.814Z,3.52
2019-02-22T22:56:13.695Z,3.06
2019-02-22T23:01:22.324Z,6.83
2019-02-22T23:06:13.974Z,3.34
2019-02-22T23:11:23.268Z,5.10
2019-02-22T23:16:25.782Z,3.62
2019-02-22T23:21:41.507Z,3.59
2019-02-22T23:26:27.964Z,3.59
2019-02-22T23:31:44.004Z,3.48
2019-02-22T23:36:34.448Z,3.24
2019-02-22T23:41:38.112Z,3.65
2019-02-22T23:46:41.363Z,4.10
2019-02-22T23:51:45.118Z,2.80
2019-02-22T23:56:46.935Z,5.31
